Time;durP1;ratioP1;P1;durP2;ratioP2;P2;SDS_P1;SDS_P2;PMS_P1;PMS_P2;Temp;Humidity;BMP_temperature;BMP_pressure;BME280_temperature;BME280_humidity;BME280_pressure;Samples;Min_cycle;Max_cycle;Signal;HPM_P1;HPM_P2
2023/10/28 00:01:11;;;;;;;1.60;0.68;;;19.30;78.80;;;;;;6145770;22;44733;-59
2023/10/28 00:03:40;;;;;;;1.50;0.50;;;19.30;78.90;;;;;;6132877;22;44774;-59
2023/10/28 00:06:10;;;;;;;3.53;1.00;;;19.30;79.00;;;;;;6150555;22;44956;-59
2023/10/28 00:08:39;;;;;;;1.63;0.90;;;19.30;78.70;;;;;;6137618;22;45459;-59
2023/10/28 00:11:19;;;;;;;1.85;0.80;;;19.30;78.80;;;;;;6124726;22;44866;-59
2023/10/28 00:13:52;;;;;;;2.72;0.70;;;19.30;78.80;;;;;;6145219;22;44728;-59
2023/10/28 00:16:27;;;;;;;1.08;0.50;;;19.30;78.80;;;;;;6166596;22;44758;-59
2023/10/28 00:19:03;;;;;;;2.50;0.70;;;19.30;78.80;;;;;;6118146;22;46596;-59
2023/10/28 00:24:22;;;;;;;1.60;0.70;;;19.30;78.80;;;;;;6142135;22;44756;-59
2023/10/28 00:26:50;;;;;;;2.15;0.80;;;19.30;78.80;;;;;;6128287;22;44929;-59
2023/10/28 00:29:26;;;;;;;1.40;0.65;;;19.30;78.70;;;;;;6144005;22;46350;-59
2023/10/28 00:32:23;;;;;;;1.42;0.70;;;19.30;78.70;;;;;;6164571;22;44639;-59
2023/10/28 00:34:52;;;;;;;1.92;0.80;;;19.40;78.60;;;;;;6146461;22;44737;-59
2023/10/28 00:37:22;;;;;;;3.50;0.90;;;19.30;78.70;;;;;;6150030;22;44714;-59
2023/10/28 00:40:21;;;;;;;2.03;0.75;;;19.30;78.70;;;;;;6129343;22;45762;-59
2023/10/28 00:43:10;;;;;;;3.70;0.93;;;19.30;78.60;;;;;;6153285;22;44768;-59
2023/10/28 00:45:39;;;;;;;1.45;0.65;;;19.30;78.60;;;;;;6121523;22;44761;-59
2023/10/28 00:48:20;;;;;;;1.05;0.60;;;19.30;78.70;;;;;;6129051;22;44990;-59
2023/10/28 00:50:47;;;;;;;0.65;0.50;;;19.30;78.90;;;;;;6135991;22;45203;-60
2023/10/28 00:53:26;;;;;;;1.35;0.70;;;19.30;80.00;;;;;;6134325;22;44760;-59
2023/10/28 00:55:54;;;;;;;0.95;0.68;;;19.30;79.10;;;;;;6130430;22;44620;-59
2023/10/28 00:58:23;;;;;;;1.50;0.50;;;19.30;79.30;;;;;;6133898;22;44856;-59
2023/10/28 01:00:52;;;;;;;2.15;0.80;;;19.30;79.30;;;;;;6158031;22;46304;-59
2023/10/28 01:03:24;;;;;;;2.55;0.70;;;19.30;79.40;;;;;;6158730;22;44791;-59
2023/10/28 01:05:53;;;;;;;1.52;0.60;;;19.30;79.30;;;;;;6119381;22;44863;-59
2023/10/28 01:08:31;;;;;;;0.98;0.50;;;19.30;79.40;;;;;;6131480;22;44913;-59
2023/10/28 01:11:12;;;;;;;2.10;0.73;;;19.30;79.40;;;;;;6123536;22;45399;-59
2023/10/28 01:13:41;;;;;;;1.35;0.80;;;19.30;79.50;;;;;;6129773;22;44644;-59
2023/10/28 01:16:19;;;;;;;1.00;0.40;;;19.30;79.60;;;;;;6131631;22;44862;-59
2023/10/28 01:19:09;;;;;;;1.65;0.70;;;19.30;79.50;;;;;;6141412;22;44896;-59
2023/10/28 01:21:45;;;;;;;1.42;0.63;;;19.30;79.30;;;;;;6136576;22;46380;-59
2023/10/28 01:24:24;;;;;;;1.08;0.50;;;19.30;79.20;;;;;;6151594;22;44711;-59
2023/10/28 01:27:15;;;;;;;1.52;0.60;;;19.30;79.40;;;;;;6168863;22;44864;-59
2023/10/28 01:29:42;;;;;;;1.23;0.57;;;19.30;79.20;;;;;;6151736;22;44972;-59
2023/10/28 01:32:11;;;;;;;1.92;0.77;;;19.30;79.30;;;;;;6153236;22;46300;-59
2023/10/28 01:34:52;;;;;;;2.22;0.70;;;19.30;79.30;;;;;;6139380;22;44698;-59
2023/10/28 01:37:37;;;;;;;3.53;0.85;;;19.30;79.20;;;;;;6139129;22;44730;-59
2023/10/28 01:40:33;;;;;;;2.13;0.60;;;19.30;79.10;;;;;;6166036;22;44734;-59
2023/10/28 01:43:01;;;;;;;1.17;0.70;;;19.30;79.10;;;;;;6128470;22;46056;-59
2023/10/28 01:45:31;;;;;;;2.47;0.90;;;19.30;79.10;;;;;;6147161;22;44710;-59
2023/10/28 01:48:01;;;;;;;1.58;0.60;;;19.40;80.10;;;;;;6163761;22;44628;-59
2023/10/28 01:50:30;;;;;;;1.15;0.50;;;19.30;79.10;;;;;;6140837;22;44530;-59
2023/10/28 01:53:02;;;;;;;1.88;0.90;;;19.30;79.00;;;;;;6145502;22;46343;-59
2023/10/28 01:55:32;;;;;;;2.33;0.68;;;19.30;79.10;;;;;;6137424;22;44703;-59
2023/10/28 01:57:59;;;;;;;2.08;0.90;;;19.30;79.20;;;;;;6132230;22;45181;-59
2023/10/28 02:00:35;;;;;;;1.75;0.57;;;19.30;79.20;;;;;;6125741;22;44868;-59
2023/10/28 02:03:08;;;;;;;0.88;0.60;;;19.30;79.30;;;;;;6126613;22;45472;-59
2023/10/28 02:05:38;;;;;;;1.65;0.70;;;19.30;79.50;;;;;;6153906;22;44674;-59
2023/10/28 02:08:11;;;;;;;0.40;0.40;;;19.30;79.60;;;;;;6174170;22;44886;-59
2023/10/28 02:10:39;;;;;;;1.13;0.52;;;19.30;79.60;;;;;;6138891;22;44795;-59
2023/10/28 02:13:09;;;;;;;0.82;0.55;;;19.30;79.60;;;;;;6136452;22;45375;-59
2023/10/28 02:15:38;;;;;;;1.65;0.57;;;19.30;79.60;;;;;;6138675;22;44447;-60
2023/10/28 02:18:07;;;;;;;1.33;0.60;;;19.30;79.50;;;;;;6163767;22;44907;-59
2023/10/28 02:20:37;;;;;;;0.55;0.40;;;19.30;79.60;;;;;;6123410;22;44801;-59
2023/10/28 02:23:23;;;;;;;1.85;0.70;;;19.30;79.60;;;;;;6138329;22;45856;-59
2023/10/28 02:25:58;;;;;;;2.30;0.70;;;19.30;79.60;;;;;;6156921;22;44679;-59
2023/10/28 02:28:25;;;;;;;2.10;0.70;;;19.30;79.40;;;;;;6122110;22;44673;-59
2023/10/28 02:31:25;;;;;;;0.73;0.45;;;19.30;79.30;;;;;;6162691;22;44683;-59
2023/10/28 02:33:56;;;;;;;1.20;0.50;;;19.30;79.20;;;;;;6163569;22;46156;-59
2023/10/28 02:36:22;;;;;;;2.08;0.52;;;19.30;79.20;;;;;;6118816;22;44698;-59
2023/10/28 02:39:03;;;;;;;0.68;0.50;;;19.30;79.20;;;;;;6138913;22;44723;-59
2023/10/28 02:42:03;;;;;;;0.50;0.50;;;19.30;79.20;;;;;;6155819;22;44903;-59
2023/10/28 02:44:32;;;;;;;1.40;0.65;;;19.30;79.10;;;;;;6146973;22;46554;-59
2023/10/28 02:47:01;;;;;;;1.58;0.60;;;19.30;79.10;;;;;;6163874;22;44612;-59
2023/10/28 02:49:44;;;;;;;2.40;0.57;;;19.30;79.10;;;;;;6146968;22;44720;-59
2023/10/28 02:52:12;;;;;;;2.05;0.50;;;19.30;79.00;;;;;;6121116;22;44634;-59
2023/10/28 02:54:52;;;;;;;0.60;0.38;;;19.30;79.00;;;;;;6140419;22;45642;-59
2023/10/28 02:57:21;;;;;;;1.52;0.52;;;19.30;79.00;;;;;;6161349;22;44627;-59
2023/10/28 02:59:50;;;;;;;0.98;0.50;;;19.30;78.90;;;;;;6132563;22;44707;-59
2023/10/28 03:02:27;;;;;;;0.73;0.50;;;19.30;78.90;;;;;;6135789;22;44875;-59
2023/10/28 03:04:56;;;;;;;1.77;0.50;;;19.30;78.90;;;;;;6112078;22;46249;-59
2023/10/28 03:07:29;;;;;;;3.03;0.73;;;19.30;79.00;;;;;;6121273;22;44724;-59
2023/10/28 03:10:03;;;;;;;0.95;0.28;;;19.30;79.10;;;;;;6141292;22;45070;-59
2023/10/28 03:12:32;;;;;;;1.95;0.40;;;19.30;79.10;;;;;;6136395;22;44887;-59
2023/10/28 03:15:02;;;;;;;0.65;0.22;;;19.30;79.10;;;;;;6150683;22;46209;-59
2023/10/28 03:17:42;;;;;;;1.30;0.50;;;19.30;79.10;;;;;;6161417;22;44789;-59
2023/10/28 03:20:20;;;;;;;0.82;0.43;;;19.30;79.10;;;;;;6133249;22;44644;-59
2023/10/28 03:23:17;;;;;;;0.93;0.40;;;19.30;79.10;;;;;;6158618;22;44899;-59
2023/10/28 03:25:47;;;;;;;1.73;0.40;;;19.30;79.10;;;;;;6136395;22;45414;-59
2023/10/28 03:28:16;;;;;;;2.10;0.60;;;19.30;79.10;;;;;;6142659;22;44685;-59
2023/10/28 03:31:10;;;;;;;0.90;0.35;;;19.30;79.10;;;;;;6147464;22;44726;-59
2023/10/28 03:33:52;;;;;;;0.40;0.20;;;19.30;79.10;;;;;;6126666;22;45004;-59
2023/10/28 03:36:21;;;;;;;1.30;0.40;;;19.30;79.00;;;;;;6126120;22;45368;-59
2023/10/28 03:38:48;;;;;;;2.17;0.40;;;19.30;79.00;;;;;;6127522;22;44760;-60
2023/10/28 03:41:17;;;;;;;1.08;0.40;;;19.30;78.90;;;;;;6131030;22;44658;-59
2023/10/28 03:43:45;;;;;;;1.63;0.30;;;19.30;78.70;;;;;;6134675;22;44680;-59
2023/10/28 03:46:25;;;;;;;0.75;0.38;;;19.30;78.70;;;;;;6152987;22;45237;-59
2023/10/28 03:49:05;;;;;;;3.65;0.50;;;19.30;79.60;;;;;;6135954;22;44666;-59
2023/10/28 03:51:34;;;;;;;1.33;0.30;;;19.30;78.60;;;;;;6128216;22;44753;-59
2023/10/28 03:54:04;;;;;;;0.40;0.20;;;19.30;78.40;;;;;;6141028;22;44698;-59
2023/10/28 03:56:36;;;;;;;0.95;0.20;;;19.30;78.40;;;;;;6160002;22;46136;-59
2023/10/28 03:59:04;;;;;;;0.80;0.20;;;19.30;78.30;;;;;;6118663;22;44738;-59
2023/10/28 04:01:43;;;;;;;2.38;0.40;;;19.30;78.30;;;;;;6124892;22;44767;-59
2023/10/28 04:04:11;;;;;;;1.88;0.90;;;19.30;78.30;;;;;;6172010;22;44788;-59
2023/10/28 04:06:41;;;;;;;0.98;0.38;;;19.30;78.10;;;;;;6156410;22;46358;-59
2023/10/28 04:09:13;;;;;;;0.80;0.17;;;19.30;78.00;;;;;;6137835;22;44663;-59
2023/10/28 04:11:54;;;;;;;0.68;0.38;;;19.30;77.80;;;;;;6130500;22;44721;-59
2023/10/28 04:14:23;;;;;;;2.00;0.40;;;19.30;77.80;;;;;;6143555;22;44644;-59
2023/10/28 04:16:50;;;;;;;2.30;0.50;;;19.30;77.90;;;;;;6124410;22;46349;-59
2023/10/28 04:19:34;;;;;;;1.35;0.38;;;19.30;77.80;;;;;;6148378;22;44726;-59
2023/10/28 04:22:11;;;;;;;0.85;0.32;;;19.30;77.70;;;;;;6148414;22;44811;-59
2023/10/28 04:24:59;;;;;;;0.10;0.10;;;19.30;77.70;;;;;;6142193;22;44768;-59
2023/10/28 04:27:30;;;;;;;0.60;0.30;;;19.30;77.70;;;;;;6143268;22;46277;-59
2023/10/28 04:29:58;;;;;;;1.08;0.20;;;19.30;77.60;;;;;;6116696;22;44772;-59
2023/10/28 04:32:28;;;;;;;1.13;0.20;;;19.30;77.70;;;;;;6147651;22;44739;-59
2023/10/28 04:34:55;;;;;;;0.57;0.20;;;19.30;77.70;;;;;;6114533;22;44994;-60
2023/10/28 04:37:24;;;;;;;0.90;0.20;;;19.30;77.70;;;;;;6132709;22;46492;-59
2023/10/28 04:39:54;;;;;;;1.23;0.20;;;19.30;77.60;;;;;;6159531;22;44771;-59
2023/10/28 04:42:21;;;;;;;0.30;0.20;;;19.30;77.70;;;;;;6122765;22;45117;-59
2023/10/28 04:45:06;;;;;;;0.65;0.25;;;19.20;77.60;;;;;;6136279;22;44975;-60
2023/10/28 04:47:35;;;;;;;1.10;0.30;;;19.30;77.70;;;;;;6115118;22;46432;-59
2023/10/28 04:52:58;;;;;;;0.10;0.10;;;19.30;77.70;;;;;;6119343;22;44661;-59
2023/10/28 04:55:30;;;;;;;2.17;0.35;;;19.20;77.70;;;;;;6139464;22;44794;-59
2023/10/28 05:01:08;;;;;;;0.65;0.38;;;19.30;77.70;;;;;;6169154;22;44813;-59
2023/10/28 05:03:37;;;;;;;0.20;0.17;;;19.30;77.70;;;;;;6152069;22;44758;-59
2023/10/28 05:06:05;;;;;;;1.02;0.30;;;19.30;77.70;;;;;;6125691;22;44821;-59
2023/10/28 05:08:33;;;;;;;0.20;0.20;;;19.30;77.70;;;;;;6130760;22;46322;-59
2023/10/28 05:14:01;;;;;;;0.30;0.10;;;19.30;77.70;;;;;;6162283;22;44725;-59
2023/10/28 05:16:33;;;;;;;0.10;0.10;;;19.30;77.70;;;;;;6145385;22;44877;-59
2023/10/28 05:19:02;;;;;;;0.95;0.20;;;19.30;77.70;;;;;;6151956;22;46488;-60
2023/10/28 05:21:51;;;;;;;0.47;0.30;;;19.30;77.70;;;;;;6157549;22;44541;-59
2023/10/28 05:24:19;;;;;;;1.48;0.20;;;19.30;77.70;;;;;;6130299;22;44737;-59
2023/10/28 05:26:47;;;;;;;0.28;0.15;;;19.30;77.70;;;;;;6126334;22;44806;-59
2023/10/28 05:29:22;;;;;;;0.50;0.32;;;19.20;77.60;;;;;;6150042;22;46496;-59
2023/10/28 05:32:22;;;;;;;0.20;0.20;;;19.30;77.70;;;;;;6131009;22;44724;-59
2023/10/28 05:34:49;;;;;;;2.30;0.50;;;19.30;77.70;;;;;;6133332;22;44657;-59
2023/10/28 05:39:58;;;;;;;0.30;0.25;;;19.30;77.70;;;;;;6112950;22;45070;-59
2023/10/28 05:42:54;;;;;;;0.70;0.30;;;19.20;77.60;;;;;;6153310;22;45036;-59
2023/10/28 05:45:21;;;;;;;0.45;0.30;;;19.20;77.50;;;;;;6125845;22;44551;-59
2023/10/28 05:47:54;;;;;;;0.57;0.30;;;19.20;77.60;;;;;;6157576;22;44782;-59
2023/10/28 05:53:10;;;;;;;0.50;0.30;;;19.30;77.70;;;;;;6117799;22;44721;-59
2023/10/28 05:55:38;;;;;;;0.35;0.25;;;19.30;77.70;;;;;;6139169;22;44939;-59
2023/10/28 05:58:14;;;;;;;0.85;0.32;;;19.20;77.60;;;;;;6127050;22;44686;-59
2023/10/28 06:01:13;;;;;;;2.08;0.30;;;19.20;77.60;;;;;;6164269;22;46583;-59
2023/10/28 06:03:59;;;;;;;2.00;0.30;;;19.20;77.50;;;;;;6133301;22;44677;-59
2023/10/28 06:06:27;;;;;;;0.30;0.30;;;19.30;77.70;;;;;;6137079;22;44956;-59
2023/10/28 06:08:57;;;;;;;0.70;0.30;;;19.30;77.70;;;;;;6134424;22;44758;-59
2023/10/28 06:11:27;;;;;;;0.30;0.20;;;19.30;77.70;;;;;;6146501;22;46378;-59
2023/10/28 06:14:21;;;;;;;0.85;0.40;;;19.30;77.70;;;;;;6146802;22;44642;-59
2023/10/28 06:16:58;;;;;;;0.50;0.40;;;19.30;77.60;;;;;;6120126;22;44803;-59
2023/10/28 06:19:41;;;;;;;0.75;0.20;;;19.30;77.70;;;;;;6157024;22;44987;-59
2023/10/28 06:22:19;;;;;;;0.88;0.20;;;19.20;77.60;;;;;;6131868;22;45353;-59
2023/10/28 06:24:47;;;;;;;1.13;0.40;;;19.30;77.70;;;;;;6137785;22;44672;-59
2023/10/28 06:30:20;;;;;;;1.55;0.20;;;19.30;77.60;;;;;;6124913;22;44627;-59
2023/10/28 06:32:50;;;;;;;0.70;0.38;;;19.30;77.70;;;;;;6127217;22;45462;-59
2023/10/28 06:35:25;;;;;;;0.55;0.30;;;19.30;77.70;;;;;;6128508;22;44879;-59
2023/10/28 06:37:57;;;;;;;0.50;0.20;;;19.30;77.70;;;;;;6131266;22;44556;-59
2023/10/28 06:40:42;;;;;;;0.55;0.30;;;19.20;77.60;;;;;;6146521;22;44516;-60
2023/10/28 06:43:11;;;;;;;0.17;0.17;;;19.30;77.70;;;;;;6162408;22;46365;-59
2023/10/28 06:46:05;;;;;;;0.43;0.20;;;19.20;77.60;;;;;;6145724;22;44802;-59
2023/10/28 06:48:34;;;;;;;1.95;0.30;;;19.20;77.60;;;;;;6133350;22;44801;-59
2023/10/28 06:51:12;;;;;;;0.43;0.20;;;19.20;77.60;;;;;;6132071;22;44783;-59
2023/10/28 06:53:42;;;;;;;2.40;0.20;;;19.20;77.60;;;;;;6132208;22;45464;-59
2023/10/28 06:56:25;;;;;;;0.30;0.20;;;19.20;77.60;;;;;;6119847;22;44689;-57
2023/10/28 06:59:17;;;;;;;1.35;0.40;;;19.20;77.60;;;;;;6128631;22;44757;-57
2023/10/28 07:02:13;;;;;;;0.47;0.30;;;19.20;77.50;;;;;;6165252;22;44695;-58
2023/10/28 07:04:41;;;;;;;1.08;0.47;;;19.20;77.60;;;;;;6110286;22;46458;-58
2023/10/28 07:07:12;;;;;;;0.40;0.30;;;19.20;77.60;;;;;;6107819;22;44798;-58
2023/10/28 07:09:41;;;;;;;0.93;0.38;;;19.20;77.60;;;;;;6132758;22;44777;-59
2023/10/28 07:12:30;;;;;;;2.05;0.20;;;19.20;77.60;;;;;;6159077;22;45060;-58
2023/10/28 07:14:59;;;;;;;0.47;0.30;;;19.20;77.50;;;;;;6115800;22;45905;-58
2023/10/28 07:17:36;;;;;;;0.50;0.28;;;19.20;77.60;;;;;;6123067;22;44788;-58
2023/10/28 07:20:19;;;;;;;0.40;0.10;;;19.20;77.50;;;;;;6114602;22;44766;-58
2023/10/28 07:22:48;;;;;;;1.48;0.40;;;19.20;77.60;;;;;;6130076;22;45078;-58
2023/10/28 07:25:17;;;;;;;0.20;0.20;;;19.20;77.60;;;;;;6161162;22;45415;-58
2023/10/28 07:27:48;;;;;;;0.50;0.30;;;19.20;77.60;;;;;;6171621;22;44699;-57
2023/10/28 07:30:17;;;;;;;0.30;0.20;;;19.20;77.60;;;;;;6156330;22;44718;-58
2023/10/28 07:32:46;;;;;;;1.17;0.35;;;19.20;77.60;;;;;;6134058;22;44895;-58
2023/10/28 07:35:24;;;;;;;1.85;0.25;;;19.20;77.60;;;;;;6141148;22;46133;-57
2023/10/28 07:37:53;;;;;;;0.32;0.28;;;19.30;78.60;;;;;;6139316;22;44675;-57
2023/10/28 07:40:22;;;;;;;0.98;0.20;;;19.30;78.30;;;;;;6096796;22;44587;-58
2023/10/28 07:42:49;;;;;;;0.30;0.30;;;19.20;78.20;;;;;;6110499;22;44937;-56
2023/10/28 07:45:29;;;;;;;1.15;0.40;;;19.20;78.20;;;;;;6090068;22;46363;-57
2023/10/28 07:50:38;;;;;;;0.52;0.38;;;19.30;77.70;;;;;;6068370;22;44740;-57
2023/10/28 07:53:06;;;;;;;0.82;0.32;;;19.30;76.70;;;;;;6091029;22;44699;-58
2023/10/28 07:55:36;;;;;;;0.88;0.30;;;19.30;75.60;;;;;;6081880;22;45127;-58
2023/10/28 07:58:13;;;;;;;0.60;0.35;;;19.30;74.60;;;;;;6090418;22;44664;-57
2023/10/28 08:01:13;;;;;;;14.88;0.65;;;19.30;74.50;;;;;;6083997;22;44718;-58
2023/10/28 08:03:53;;;;;;;6.93;0.80;;;19.30;73.90;;;;;;6094259;22;44688;-59
2023/10/28 08:06:20;;;;;;;0.90;0.40;;;19.30;73.70;;;;;;6076294;22;45730;-59
2023/10/28 08:08:48;;;;;;;1.05;0.50;;;19.40;74.00;;;;;;6100098;22;44752;-58
2023/10/28 08:11:17;;;;;;;6.82;0.40;;;19.40;75.80;;;;;;6094474;22;44765;-59
2023/10/28 08:14:09;;;;;;;11.23;2.15;;;19.40;77.40;;;;;;6104676;22;44743;-63
2023/10/28 08:16:36;;;;;;;6.32;1.48;;;19.50;79.00;;;;;;6089227;22;46542;-65
2023/10/28 08:19:12;;;;;;;2.90;0.73;;;19.40;77.70;;;;;;6110173;22;44757;-63
2023/10/28 08:21:51;;;;;;;3.70;0.40;;;19.40;78.70;;;;;;6136611;22;44745;-63
2023/10/28 08:24:33;;;;;;;1.83;0.70;;;19.40;77.70;;;;;;6117046;22;44957;-64
2023/10/28 08:27:01;;;;;;;1.95;0.40;;;19.50;77.80;;;;;;6132864;22;46338;-62
2023/10/28 08:29:58;;;;;;;0.50;0.30;;;19.50;77.80;;;;;;6134450;22;44753;-64
2023/10/28 08:32:38;;;;;;;0.85;0.40;;;19.50;77.80;;;;;;6126635;22;44853;-65
2023/10/28 08:35:06;;;;;;;0.65;0.35;;;19.50;77.80;;;;;;6127664;22;44879;-65
2023/10/28 08:37:50;;;;;;;2.33;0.40;;;19.50;77.80;;;;;;6135446;22;46282;-66
2023/10/28 08:40:19;;;;;;;1.38;0.32;;;19.50;77.80;;;;;;6127334;22;44709;-66
2023/10/28 08:42:49;;;;;;;1.55;0.50;;;19.50;77.80;;;;;;6108312;22;44880;-62
2023/10/28 08:45:27;;;;;;;1.77;0.50;;;19.60;77.90;;;;;;6133979;22;44979;-63
2023/10/28 08:48:03;;;;;;;0.55;0.35;;;19.60;77.90;;;;;;6134095;22;45608;-64
2023/10/28 08:53:38;;;;;;;0.38;0.38;;;19.60;77.90;;;;;;6141208;22;44615;-65
2023/10/28 08:56:07;;;;;;;0.60;0.30;;;19.60;77.90;;;;;;6145386;22;44700;-65
2023/10/28 08:58:45;;;;;;;0.70;0.32;;;19.60;77.90;;;;;;6116976;22;46261;-66
2023/10/28 09:01:14;;;;;;;0.47;0.28;;;19.60;77.90;;;;;;6115369;22;44829;-66
2023/10/28 09:03:56;;;;;;;1.27;0.65;;;19.60;77.90;;;;;;6131959;22;44724;-65
2023/10/28 09:06:52;;;;;;;1.10;0.57;;;19.50;77.80;;;;;;6171467;22;44789;-65
2023/10/28 09:09:21;;;;;;;1.58;0.47;;;19.50;77.80;;;;;;6131280;22;46292;-65
2023/10/28 09:11:51;;;;;;;2.05;0.60;;;19.50;78.10;;;;;;6089966;22;44712;-65
2023/10/28 09:14:34;;;;;;;0.88;0.30;;;19.50;78.50;;;;;;6077384;22;44786;-66
2023/10/28 09:17:03;;;;;;;2.38;0.43;;;19.60;77.90;;;;;;6078935;22;44996;-65
2023/10/28 09:19:31;;;;;;;1.73;0.55;;;19.50;77.80;;;;;;6092322;22;46526;-65
2023/10/28 09:22:05;;;;;;;2.22;0.40;;;19.50;77.30;;;;;;6090732;22;44677;-66
2023/10/28 09:24:38;;;;;;;1.73;0.60;;;19.50;76.60;;;;;;6088836;22;44744;-65
2023/10/28 09:29:46;;;;;;;1.63;0.57;;;19.40;74.90;;;;;;6072942;22;45100;-63
2023/10/28 09:32:18;;;;;;;1.75;0.50;;;19.40;74.60;;;;;;6098791;22;44766;-62
2023/10/28 09:34:48;;;;;;;2.08;0.50;;;19.50;74.20;;;;;;6080495;22;44845;-63
2023/10/28 09:37:15;;;;;;;0.40;0.30;;;19.40;74.40;;;;;;6093948;22;44881;-64
2023/10/28 09:39:51;;;;;;;0.63;0.40;;;19.40;74.20;;;;;;6087603;22;46241;-62
2023/10/28 09:42:22;;;;;;;1.30;0.40;;;19.40;75.10;;;;;;6091402;22;44788;-63
2023/10/28 09:44:49;;;;;;;0.55;0.40;;;19.40;76.80;;;;;;6091764;22;45057;-63
2023/10/28 09:47:39;;;;;;;2.22;0.50;;;19.40;77.70;;;;;;6103170;22;44717;-62
2023/10/28 09:50:26;;;;;;;1.02;0.32;;;19.40;77.70;;;;;;6102747;22;46338;-63
2023/10/28 09:53:09;;;;;;;0.35;0.22;;;19.40;77.70;;;;;;6102298;22;44618;-64
2023/10/28 09:55:56;;;;;;;0.35;0.30;;;19.40;77.70;;;;;;6134793;22;44757;-64
2023/10/28 09:58:47;;;;;;;0.88;0.35;;;19.40;77.70;;;;;;6091887;22;44806;-64
2023/10/28 10:01:40;;;;;;;0.80;0.35;;;19.40;77.70;;;;;;6075786;22;45647;-64
2023/10/28 10:04:21;;;;;;;1.02;0.30;;;19.40;77.80;;;;;;6110150;22;44868;-65
2023/10/28 10:06:48;;;;;;;0.98;0.40;;;19.40;78.00;;;;;;6076142;22;44782;-65
2023/10/28 10:09:18;;;;;;;1.17;0.40;;;19.50;78.30;;;;;;6074247;22;44805;-63
2023/10/28 10:11:51;;;;;;;1.00;0.38;;;19.50;78.50;;;;;;6077705;22;46321;-64
2023/10/28 10:14:30;;;;;;;0.77;0.32;;;19.40;78.50;;;;;;6094828;22;44706;-64
2023/10/28 10:17:11;;;;;;;1.17;0.28;;;19.50;78.80;;;;;;6101080;22;44841;-63
2023/10/28 10:19:39;;;;;;;0.43;0.13;;;19.40;78.80;;;;;;6116408;22;44704;-62
2023/10/28 10:24:55;;;;;;;0.68;0.25;;;19.50;79.70;;;;;;6081408;22;44679;-64
2023/10/28 10:27:53;;;;;;;0.20;0.20;;;19.50;78.70;;;;;;6104946;22;44710;-64
2023/10/28 10:30:36;;;;;;;0.22;0.20;;;19.50;79.10;;;;;;6085206;22;44730;-65
2023/10/28 10:33:04;;;;;;;1.63;0.30;;;19.50;79.20;;;;;;6085518;22;46496;-65
2023/10/28 10:35:54;;;;;;;0.60;0.30;;;19.50;79.20;;;;;;6121682;22;44697;-65
2023/10/28 10:39:09;;;;;;;0.73;0.25;;;19.50;79.30;;;;;;6101668;22;44759;-63
2023/10/28 10:41:49;;;;;;;1.60;0.47;;;19.60;79.20;;;;;;6083979;22;44746;-63
2023/10/28 10:44:35;;;;;;;0.82;0.30;;;19.60;79.20;;;;;;6100140;22;46547;-62
2023/10/28 10:47:05;;;;;;;1.50;0.45;;;19.70;79.50;;;;;;6072663;22;44789;-63
2023/10/28 10:49:32;;;;;;;0.45;0.30;;;19.70;79.40;;;;;;6082058;22;44764;-63
2023/10/28 10:54:43;;;;;;;0.70;0.35;;;19.70;79.00;;;;;;6072781;22;45144;-63
2023/10/28 10:57:12;;;;;;;0.95;0.30;;;19.70;78.70;;;;;;6104604;22;44651;-62
2023/10/28 10:59:49;;;;;;;1.80;0.50;;;19.60;78.40;;;;;;6093605;22;44878;-63
2023/10/28 11:02:18;;;;;;;2.63;0.50;;;19.60;77.90;;;;;;6073521;22;44753;-64
2023/10/28 11:04:45;;;;;;;5.00;0.57;;;19.60;78.60;;;;;;6057899;22;45288;-62
2023/10/28 11:07:14;;;;;;;0.57;0.35;;;19.60;78.90;;;;;;6111725;22;44803;-64
2023/10/28 11:09:43;;;;;;;1.95;0.73;;;19.60;79.30;;;;;;6090080;22;44851;-64
2023/10/28 11:15:07;;;;;;;2.55;0.57;;;19.60;80.30;;;;;;6096711;22;45180;-66
2023/10/28 11:17:47;;;;;;;3.50;0.60;;;19.60;79.30;;;;;;6099155;22;44843;-66
2023/10/28 11:20:30;;;;;;;1.23;0.35;;;19.50;79.40;;;;;;6105041;22;44713;-66
2023/10/28 11:23:00;;;;;;;1.95;0.40;;;19.60;79.30;;;;;;6131222;22;44657;-66
2023/10/28 11:26:03;;;;;;;0.80;0.40;;;19.50;79.20;;;;;;6110004;22;46343;-66
2023/10/28 11:28:41;;;;;;;0.40;0.40;;;19.60;79.20;;;;;;6106838;22;44658;-66
2023/10/28 11:31:18;;;;;;;3.50;0.55;;;19.60;79.30;;;;;;6122809;22;44812;-66
2023/10/28 11:34:24;;;;;;;1.50;0.50;;;19.50;79.20;;;;;;6111931;22;44675;-66
2023/10/28 11:37:01;;;;;;;0.75;0.40;;;19.60;79.40;;;;;;6100381;22;46269;-66
2023/10/28 11:39:38;;;;;;;1.95;0.50;;;19.60;79.40;;;;;;6108780;22;44806;-67
2023/10/28 11:42:19;;;;;;;1.13;0.40;;;19.60;79.30;;;;;;6106474;22;44736;-67
2023/10/28 11:44:52;;;;;;;0.77;0.38;;;19.50;79.20;;;;;;6117237;22;44832;-67
2023/10/28 11:47:20;;;;;;;1.33;0.40;;;19.60;79.40;;;;;;6117931;22;44996;-67
2023/10/28 11:49:49;;;;;;;1.13;0.65;;;19.50;79.20;;;;;;6082921;22;44799;-67
2023/10/28 11:52:19;;;;;;;3.13;0.50;;;19.50;79.20;;;;;;6112361;22;44550;-67
2023/10/28 11:54:46;;;;;;;2.20;0.55;;;19.60;79.20;;;;;;6077775;22;44937;-67
2023/10/28 11:57:12;;;;;;;1.42;0.55;;;19.60;79.30;;;;;;6099466;22;46317;-67
2023/10/28 11:59:40;;;;;;;1.17;0.60;;;19.60;79.20;;;;;;6094836;22;44882;-67
2023/10/28 12:02:08;;;;;;;2.38;0.57;;;19.60;79.20;;;;;;6089781;22;44684;-67
2023/10/28 12:04:39;;;;;;;2.38;0.73;;;19.50;79.10;;;;;;6091217;22;45004;-67
2023/10/28 12:07:15;;;;;;;3.97;0.60;;;19.50;79.10;;;;;;6104445;22;47408;-67
2023/10/28 12:09:55;;;;;;;1.08;0.52;;;19.50;79.20;;;;;;6090956;22;45302;-67
2023/10/28 12:12:36;;;;;;;3.00;0.80;;;19.50;79.10;;;;;;6098362;22;44680;-67
2023/10/28 12:15:03;;;;;;;2.65;0.63;;;19.60;79.30;;;;;;6099159;22;44742;-67
2023/10/28 12:17:30;;;;;;;1.67;0.40;;;19.60;79.10;;;;;;6108912;22;46487;-67
2023/10/28 12:20:20;;;;;;;2.53;0.90;;;19.50;79.10;;;;;;6090268;22;44683;-67
2023/10/28 12:23:00;;;;;;;1.40;0.52;;;19.50;79.10;;;;;;6115616;22;44728;-67
2023/10/28 12:25:27;;;;;;;2.35;0.65;;;19.50;78.90;;;;;;6099474;22;44791;-67
2023/10/28 12:27:55;;;;;;;1.50;0.57;;;19.50;78.80;;;;;;6090155;22;46237;-67
2023/10/28 12:33:44;;;;;;;3.00;0.43;;;19.50;78.90;;;;;;6056873;22;44788;-67
2023/10/28 12:39:16;;;;;;;0.95;0.43;;;19.50;78.70;;;;;;6101630;22;45454;-67
2023/10/28 12:45:03;;;;;;;2.00;0.55;;;19.50;78.80;;;;;;6064920;22;45210;-67
2023/10/28 12:47:38;;;;;;;0.88;0.50;;;19.50;79.00;;;;;;6044852;22;45228;-66
2023/10/28 12:50:35;;;;;;;0.85;0.50;;;19.50;79.00;;;;;;6040259;22;45423;-62
2023/10/28 12:53:29;;;;;;;2.75;0.43;;;19.50;79.10;;;;;;6041798;22;45214;-64
2023/10/28 12:56:13;;;;;;;1.20;0.50;;;19.50;79.00;;;;;;6042962;22;45492;-65
2023/10/28 12:59:22;;;;;;;2.22;0.63;;;19.60;79.10;;;;;;6046854;22;45130;-65
2023/10/28 13:01:52;;;;;;;1.52;0.50;;;19.60;79.00;;;;;;6024096;22;46275;-66
2023/10/28 13:04:25;;;;;;;0.98;0.60;;;19.60;79.10;;;;;;6034769;22;45186;-66
2023/10/28 13:06:57;;;;;;;1.08;0.43;;;19.60;79.30;;;;;;6018568;22;45082;-66
2023/10/28 13:09:25;;;;;;;1.95;0.40;;;19.60;79.40;;;;;;6026844;22;45419;-66
2023/10/28 13:12:16;;;;;;;1.13;0.65;;;19.60;79.20;;;;;;6030026;22;47162;-65
2023/10/28 13:15:10;;;;;;;2.10;0.60;;;19.60;79.40;;;;;;6010880;22;45247;-65
2023/10/28 13:18:03;;;;;;;0.68;0.30;;;19.60;79.80;;;;;;6010715;22;45204;-65
2023/10/28 13:23:59;;;;;;;2.42;0.50;;;19.50;79.70;;;;;;5989643;22;45741;-65
2023/10/28 13:26:26;;;;;;;1.05;0.70;;;19.50;80.00;;;;;;6044412;22;45161;-66
2023/10/28 13:29:18;;;;;;;1.42;0.50;;;19.50;80.30;;;;;;6068299;22;45198;-65
2023/10/28 13:32:06;;;;;;;1.65;0.40;;;19.60;80.70;;;;;;6047506;22;45243;-66
2023/10/28 13:34:34;;;;;;;1.23;0.40;;;19.50;80.80;;;;;;6013100;22;47360;-66
2023/10/28 13:37:34;;;;;;;1.83;0.50;;;19.50;81.00;;;;;;6046316;22;45143;-65
2023/10/28 13:40:35;;;;;;;1.58;0.50;;;19.60;82.40;;;;;;6029440;22;44896;-66
2023/10/28 13:43:36;;;;;;;0.70;0.30;;;19.50;81.40;;;;;;6026963;22;44800;-66
2023/10/28 13:46:25;;;;;;;1.40;0.40;;;19.60;81.20;;;;;;6021583;22;47475;-66
2023/10/28 13:49:03;;;;;;;0.75;0.30;;;19.50;79.80;;;;;;6016682;22;45359;-66
2023/10/28 13:51:30;;;;;;;1.15;0.50;;;19.50;77.80;;;;;;6008538;22;45231;-66
2023/10/28 13:53:58;;;;;;;1.90;0.50;;;19.50;77.80;;;;;;6015948;22;45199;-66
2023/10/28 13:56:40;;;;;;;1.30;0.50;;;19.50;76.40;;;;;;6044701;22;46481;-66
2023/10/28 13:59:07;;;;;;;1.85;0.50;;;19.40;74.90;;;;;;6043767;22;45207;-66
2023/10/28 14:01:55;;;;;;;2.70;0.73;;;19.40;74.50;;;;;;6027667;22;45177;-64
2023/10/28 14:04:24;;;;;;;1.42;0.55;;;19.40;73.80;;;;;;6032668;22;45230;-63
2023/10/28 14:06:59;;;;;;;1.70;0.52;;;19.40;73.70;;;;;;6031740;22;47181;-63
2023/10/28 14:09:50;;;;;;;2.15;0.50;;;19.40;73.30;;;;;;6026789;22;45098;-64
2023/10/28 14:12:41;;;;;;;2.08;0.75;;;19.40;72.90;;;;;;6035754;22;45206;-63
2023/10/28 14:15:09;;;;;;;1.17;0.40;;;19.30;72.50;;;;;;6015567;22;45318;-63
2023/10/28 14:17:38;;;;;;;0.90;0.30;;;19.30;72.50;;;;;;6026455;22;46499;-63
2023/10/28 14:20:14;;;;;;;0.17;0.15;;;19.30;73.70;;;;;;6038819;22;45271;-63
2023/10/28 14:23:09;;;;;;;1.70;0.40;;;19.30;75.20;;;;;;6009408;22;45295;-63